Elmira Corning Regional Airport
KELM : now visible

Airfield :











YOU CAN JOIN US ON...

 
LOGIN :

Register | Disclaimer

   EN    FR    IT 

 









Legend :    VFR   Marginal VFR   IFR   Intensive IFR   Very Intensive IFR
Visi :
Ceiling :
>= 8 km
>= 3000ft
5 to 8 km
1000 to 3000 ft
1500m to 5 km
500 to 1000 ft
800 to 1500m
200 to 500 ft
< 800m
< 200 ft
Symbols :   Thunderstorms  Fog  Heavy snow  Heavy precipitations  Wind > 20 kt






- Airport Elevation : 954 ft
- IATA code : ELM


KELM - Elmira Corning Regional

CURRENT METAR :
  • 040453Z AUTO 00000KT 10SM CLR 12/09 A3017 RMK AO2 SLP213 T01220089 402780117

EXPIRED METARs :
  • 040353Z AUTO 00000KT 10SM CLR 13/09 A3017 RMK AO2 SLP212 T01280094
  • 040253Z 00000KT 10SM CLR 14/09 A3015 RMK AO2 SLP206 T01440094 53014

TAF KELM
Valid from the 04 at 06:00 until the 05 at 06:00 UTC


040540Z 0406/0506 00000KT P6SM SKC
TEMPO 0409/0411 5SM BR
FM041400 27005KT P6SM SKC
FM050000 00000KT P6SM SKC
KZNY FIR / North America



MET'MAP, your aeronautical weather chart ! - Copyright ORBIFLY December 2007 - Disclaimer

ORBIFLY MET'MAP TEAM :

Programming & Development : Alexandra Zaïnal
Original concept : Baudouin d'Aumeries
Technical & hardware support : Manuel Goepfert
Assistance : Marc-Olivier Méhu




SOURCES & CREDITS :

   NOAA       Earth
Advisory